Time;durP1;ratioP1;P1;durP2;ratioP2;P2;SDS_P1;SDS_P2;PMS_P1;PMS_P2;Temp;Humidity;BMP_temperature;BMP_pressure;BME280_temperature;BME280_humidity;BME280_pressure;Samples;Min_cycle;Max_cycle;Signal;HPM_P1;HPM_P2
2021/05/08 00:00:19;;;;;;;2.00;1.80;;;4.50;99.90;;;;;;5133007;27;20459;-72
2021/05/08 00:02:47;;;;;;;2.63;2.00;;;4.50;99.90;;;;;;5133274;27;20442;-72
2021/05/08 00:05:14;;;;;;;3.13;1.80;;;4.50;99.90;;;;;;5133036;27;20457;-72
2021/05/08 00:07:41;;;;;;;4.27;2.17;;;4.50;99.90;;;;;;5133361;27;20419;-72
2021/05/08 00:10:09;;;;;;;2.83;1.73;;;4.40;99.90;;;;;;5117598;27;20436;-72
2021/05/08 00:12:36;;;;;;;2.00;1.70;;;4.40;99.90;;;;;;5112654;28;20428;-72
2021/05/08 00:15:04;;;;;;;3.93;2.00;;;4.40;99.90;;;;;;5112216;28;20451;-72
2021/05/08 00:17:31;;;;;;;1.70;1.60;;;4.30;99.90;;;;;;5112162;28;20441;-72
2021/05/08 00:19:59;;;;;;;1.87;1.70;;;4.30;99.90;;;;;;5112285;28;20472;-72
2021/05/08 00:22:25;;;;;;;2.07;1.83;;;4.30;99.90;;;;;;5112720;28;20438;-72
2021/05/08 00:24:52;;;;;;;3.53;1.80;;;4.30;99.90;;;;;;5112329;28;20961;-73
2021/05/08 00:27:19;;;;;;;2.63;2.30;;;4.30;99.90;;;;;;5112479;28;20770;-72
2021/05/08 00:29:48;;;;;;;6.10;1.80;;;4.30;99.90;;;;;;5111784;28;20432;-72
2021/05/08 00:32:15;;;;;;;2.30;2.10;;;4.40;99.90;;;;;;5112123;28;20947;-72
2021/05/08 00:34:42;;;;;;;2.30;2.10;;;4.40;99.90;;;;;;5112352;28;20539;-72
2021/05/08 00:37:10;;;;;;;3.20;2.30;;;4.30;99.90;;;;;;5112255;28;20434;-72
2021/05/08 00:39:37;;;;;;;2.40;2.20;;;4.30;99.90;;;;;;5111166;28;20475;-72
2021/05/08 00:42:04;;;;;;;1.90;1.53;;;4.30;99.90;;;;;;5112033;28;20463;-72
2021/05/08 00:44:30;;;;;;;2.47;1.80;;;4.20;99.90;;;;;;5111571;28;20440;-72
2021/05/08 00:46:58;;;;;;;6.30;2.27;;;4.20;99.90;;;;;;5111942;28;20477;-72
2021/05/08 00:49:27;;;;;;;6.27;1.90;;;4.20;99.90;;;;;;5112186;28;20439;-72
2021/05/08 00:51:59;;;;;;;2.80;1.73;;;4.10;99.90;;;;;;5112171;28;20914;-72
2021/05/08 00:54:26;;;;;;;2.90;2.10;;;4.10;99.90;;;;;;5111945;28;20539;-73
2021/05/08 00:56:53;;;;;;;5.83;2.10;;;4.20;99.90;;;;;;5118240;27;20442;-72
2021/05/08 00:59:21;;;;;;;3.20;1.93;;;4.10;99.90;;;;;;5118440;27;20479;-72
2021/05/08 01:01:47;;;;;;;2.20;2.00;;;4.10;99.90;;;;;;5111878;28;20982;-72
2021/05/08 01:04:14;;;;;;;2.70;1.80;;;4.10;99.90;;;;;;5111460;28;20471;-72
2021/05/08 01:06:41;;;;;;;2.10;1.90;;;4.00;99.90;;;;;;5112099;27;20442;-72
2021/05/08 01:09:08;;;;;;;2.03;1.93;;;4.00;99.90;;;;;;5111413;28;20522;-72
2021/05/08 01:11:37;;;;;;;3.90;2.53;;;4.00;99.90;;;;;;5111424;28;20431;-72
2021/05/08 01:14:04;;;;;;;4.30;2.30;;;3.90;99.90;;;;;;5111541;28;20500;-72
2021/05/08 01:16:31;;;;;;;1.90;1.57;;;3.90;99.90;;;;;;5111258;28;20444;-72
2021/05/08 01:18:59;;;;;;;2.20;2.00;;;3.90;99.90;;;;;;5111333;28;20424;-72
2021/05/08 01:21:26;;;;;;;3.33;2.03;;;3.90;99.90;;;;;;5111645;28;20443;-72
2021/05/08 01:23:53;;;;;;;3.10;2.17;;;3.90;99.90;;;;;;5111284;28;20452;-72
2021/05/08 01:26:20;;;;;;;4.70;2.50;;;3.90;99.90;;;;;;5111013;28;20436;-72
2021/05/08 01:28:47;;;;;;;2.90;2.00;;;3.90;99.90;;;;;;5111190;28;20496;-71
2021/05/08 01:31:14;;;;;;;6.10;2.50;;;3.80;99.90;;;;;;5111338;28;20440;-72
2021/05/08 01:33:41;;;;;;;2.10;1.90;;;3.80;99.90;;;;;;5111255;28;20785;-73
2021/05/08 01:36:08;;;;;;;3.27;2.73;;;3.80;99.90;;;;;;5111190;28;20420;-72
2021/05/08 01:38:36;;;;;;;2.23;1.87;;;3.80;99.90;;;;;;5111285;28;20526;-72
2021/05/08 01:41:04;;;;;;;8.70;2.50;;;3.90;99.90;;;;;;5110894;28;20476;-73
2021/05/08 01:43:31;;;;;;;2.73;2.10;;;3.90;99.90;;;;;;5111023;28;20456;-72
2021/05/08 01:45:58;;;;;;;3.47;2.50;;;3.90;99.90;;;;;;5110766;28;20448;-72
2021/05/08 01:48:26;;;;;;;2.80;2.10;;;3.80;99.90;;;;;;5111101;28;20428;-72
2021/05/08 01:50:54;;;;;;;1.70;1.60;;;3.80;99.90;;;;;;5114603;28;20446;-72
2021/05/08 01:53:21;;;;;;;2.30;1.97;;;3.80;99.90;;;;;;5115107;28;20436;-72
2021/05/08 01:55:49;;;;;;;2.30;2.10;;;3.80;99.90;;;;;;5116173;27;20464;-72
2021/05/08 01:58:16;;;;;;;3.67;2.33;;;3.80;99.90;;;;;;5123500;27;20529;-73
2021/05/08 02:00:45;;;;;;;2.70;2.50;;;3.80;99.90;;;;;;5115015;28;20885;-73
2021/05/08 02:03:12;;;;;;;2.90;2.60;;;3.80;99.90;;;;;;5115052;28;20986;-72
2021/05/08 02:05:41;;;;;;;2.50;2.30;;;3.70;99.90;;;;;;5114998;28;20444;-73
2021/05/08 02:08:09;;;;;;;3.40;2.17;;;3.60;99.90;;;;;;5114908;28;20426;-72
2021/05/08 02:10:37;;;;;;;2.50;2.10;;;3.50;99.90;;;;;;5114569;28;20428;-73
2021/05/08 02:13:06;;;;;;;2.47;2.27;;;3.50;99.90;;;;;;5114747;28;20747;-72
2021/05/08 02:15:33;;;;;;;3.90;2.40;;;3.50;99.90;;;;;;5114842;28;20853;-72
2021/05/08 02:18:00;;;;;;;3.33;2.57;;;3.40;99.90;;;;;;5114667;28;20440;-72
2021/05/08 02:20:28;;;;;;;5.10;2.27;;;3.40;99.90;;;;;;5114365;28;20470;-73
2021/05/08 02:22:56;;;;;;;2.20;1.97;;;3.40;99.90;;;;;;5115026;28;20477;-73
2021/05/08 02:25:22;;;;;;;2.20;2.00;;;3.30;99.90;;;;;;5114819;28;20461;-72
2021/05/08 02:27:50;;;;;;;2.60;2.37;;;3.30;99.90;;;;;;5114411;28;20435;-72
2021/05/08 02:30:21;;;;;;;3.60;2.50;;;3.30;99.90;;;;;;5114226;28;20420;-72
2021/05/08 02:32:48;;;;;;;2.67;2.47;;;3.30;99.90;;;;;;5114433;28;20416;-72
2021/05/08 02:35:16;;;;;;;2.73;2.27;;;3.30;99.90;;;;;;5114241;28;20520;-72
2021/05/08 02:37:44;;;;;;;3.10;2.30;;;3.30;99.90;;;;;;5114419;28;20454;-72
2021/05/08 02:40:13;;;;;;;4.03;2.40;;;3.30;99.90;;;;;;5114187;28;20471;-72
2021/05/08 02:42:40;;;;;;;2.50;2.30;;;3.30;99.90;;;;;;5114218;28;20428;-72
2021/05/08 02:45:08;;;;;;;2.30;2.10;;;3.30;99.90;;;;;;5114335;27;20465;-73
2021/05/08 02:47:37;;;;;;;3.23;2.43;;;3.30;99.90;;;;;;5114063;28;20440;-72
2021/05/08 02:50:05;;;;;;;4.40;3.10;;;3.30;99.90;;;;;;5114194;28;20428;-73
2021/05/08 02:52:32;;;;;;;3.87;2.93;;;3.40;99.90;;;;;;5114087;28;20474;-72
2021/05/08 02:54:59;;;;;;;3.40;2.93;;;3.40;99.90;;;;;;5114405;28;20446;-72
2021/05/08 02:57:25;;;;;;;3.40;2.70;;;3.40;99.90;;;;;;5114410;28;20522;-72
2021/05/08 02:59:52;;;;;;;3.07;2.23;;;3.40;99.90;;;;;;5113356;28;20485;-72
2021/05/08 03:02:19;;;;;;;3.23;2.93;;;3.40;99.90;;;;;;5112939;28;20473;-73
2021/05/08 03:04:47;;;;;;;2.80;2.30;;;3.40;99.90;;;;;;5118507;27;20476;-72
2021/05/08 03:07:14;;;;;;;3.63;2.80;;;3.40;99.90;;;;;;5123234;27;20785;-73
2021/05/08 03:09:40;;;;;;;2.63;2.20;;;3.40;99.90;;;;;;5113676;28;20432;-73
2021/05/08 03:12:08;;;;;;;3.17;2.37;;;3.40;99.90;;;;;;5114203;28;20435;-72
2021/05/08 03:14:35;;;;;;;5.70;2.53;;;3.40;99.90;;;;;;5113579;28;20454;-72
2021/05/08 03:17:02;;;;;;;3.40;3.10;;;3.40;99.90;;;;;;5113776;28;20473;-72
2021/05/08 03:19:28;;;;;;;3.50;3.07;;;3.40;99.90;;;;;;5113369;28;20479;-72
2021/05/08 03:21:56;;;;;;;2.27;2.07;;;3.30;99.90;;;;;;5114007;28;20421;-73
2021/05/08 03:24:22;;;;;;;8.83;2.40;;;3.40;99.90;;;;;;5113742;28;20846;-72
2021/05/08 03:26:49;;;;;;;2.73;2.10;;;3.40;99.90;;;;;;5113473;28;20427;-72
2021/05/08 03:29:16;;;;;;;3.60;2.60;;;3.30;99.90;;;;;;5112618;28;20883;-72
2021/05/08 03:31:43;;;;;;;3.00;2.47;;;3.30;99.90;;;;;;5113619;28;20424;-72
2021/05/08 03:34:12;;;;;;;8.00;2.97;;;3.30;99.90;;;;;;5113245;27;20656;-72
2021/05/08 03:36:39;;;;;;;7.63;2.90;;;3.30;99.90;;;;;;5113362;27;20949;-72
2021/05/08 03:39:07;;;;;;;2.00;1.80;;;3.30;99.90;;;;;;5112804;28;20456;-72
2021/05/08 03:41:33;;;;;;;3.90;2.53;;;3.30;99.90;;;;;;5113118;28;20462;-72
2021/05/08 03:44:00;;;;;;;3.37;2.60;;;3.30;99.90;;;;;;5112530;28;20940;-72
2021/05/08 03:46:27;;;;;;;2.47;2.27;;;3.30;99.90;;;;;;5113471;28;20427;-72
2021/05/08 03:48:53;;;;;;;2.23;2.03;;;3.30;99.90;;;;;;5112976;28;20436;-72
2021/05/08 03:51:23;;;;;;;5.47;2.37;;;3.40;99.90;;;;;;5112787;28;20436;-72
2021/05/08 03:53:50;;;;;;;4.43;2.43;;;3.40;99.90;;;;;;5112710;28;20478;-72
2021/05/08 03:56:18;;;;;;;3.13;2.00;;;3.40;99.90;;;;;;5112677;28;20485;-72
2021/05/08 03:58:44;;;;;;;4.90;2.10;;;3.40;99.90;;;;;;5112230;28;20473;-72
2021/05/08 04:01:11;;;;;;;2.20;2.00;;;3.40;99.90;;;;;;5112932;28;20878;-72
2021/05/08 04:03:38;;;;;;;3.37;1.70;;;3.40;99.90;;;;;;5112655;28;20435;-72
2021/05/08 04:06:05;;;;;;;3.60;2.67;;;3.30;99.90;;;;;;5112821;28;20427;-72
2021/05/08 04:08:31;;;;;;;2.50;2.30;;;3.40;99.90;;;;;;5112302;28;20440;-73
2021/05/08 04:10:59;;;;;;;2.60;2.37;;;3.30;99.90;;;;;;5112332;28;20451;-72
2021/05/08 04:13:26;;;;;;;2.60;2.20;;;3.30;99.90;;;;;;5121802;27;20442;-73
2021/05/08 04:15:53;;;;;;;2.77;2.30;;;3.30;99.90;;;;;;5116054;27;20460;-72
2021/05/08 04:18:20;;;;;;;2.40;2.20;;;3.30;99.90;;;;;;5112163;28;20488;-73
2021/05/08 04:20:47;;;;;;;3.00;2.40;;;3.40;99.90;;;;;;5112282;28;20584;-72
2021/05/08 04:23:14;;;;;;;2.60;2.20;;;3.40;99.90;;;;;;5112232;27;20467;-73
2021/05/08 04:25:41;;;;;;;4.27;2.03;;;3.40;99.90;;;;;;5112086;28;20773;-73
2021/05/08 04:28:09;;;;;;;3.93;3.20;;;3.40;99.90;;;;;;5112089;28;20444;-72
2021/05/08 04:30:37;;;;;;;3.03;1.80;;;3.40;99.90;;;;;;5111909;28;20875;-73
2021/05/08 04:33:04;;;;;;;3.00;2.17;;;3.40;99.90;;;;;;5112244;28;20562;-74
2021/05/08 04:35:31;;;;;;;3.03;2.67;;;3.50;99.90;;;;;;5112090;28;20455;-74
2021/05/08 04:38:02;;;;;;;3.87;2.00;;;3.50;99.90;;;;;;5112226;28;20477;-72
2021/05/08 04:40:29;;;;;;;3.10;2.20;;;3.40;99.90;;;;;;5111653;28;20987;-73
2021/05/08 04:42:55;;;;;;;3.50;3.10;;;3.50;99.90;;;;;;5111957;28;20417;-73
2021/05/08 04:45:25;;;;;;;4.87;2.77;;;3.50;99.90;;;;;;5111909;28;20440;-73
2021/05/08 04:47:54;;;;;;;3.13;2.83;;;3.50;99.90;;;;;;5111950;28;20516;-72
2021/05/08 04:50:24;;;;;;;3.57;2.87;;;3.50;99.90;;;;;;5111479;28;20484;-72
2021/05/08 04:52:52;;;;;;;3.47;3.03;;;3.60;99.90;;;;;;5111856;28;20436;-73
2021/05/08 04:55:19;;;;;;;3.07;2.77;;;3.60;99.90;;;;;;5111622;28;20472;-73
2021/05/08 04:57:45;;;;;;;2.80;2.33;;;3.70;99.90;;;;;;5111791;28;20443;-73
2021/05/08 05:00:13;;;;;;;6.10;3.30;;;3.70;99.90;;;;;;5111133;28;20472;-72
2021/05/08 05:02:42;;;;;;;4.43;2.80;;;3.70;99.90;;;;;;5111731;28;20759;-73
2021/05/08 05:05:11;;;;;;;79.57;43.00;;;3.90;99.90;;;;;;5111177;28;20471;-73
2021/05/08 05:07:38;;;;;;;90.87;51.87;;;3.90;99.90;;;;;;5112040;28;20451;-72
2021/05/08 05:10:06;;;;;;;29.83;20.00;;;4.00;99.90;;;;;;5111797;28;20439;-72
2021/05/08 05:12:33;;;;;;;12.07;7.40;;;4.00;99.90;;;;;;5111910;28;20848;-72
2021/05/08 05:14:59;;;;;;;8.90;5.80;;;4.10;99.90;;;;;;5111179;28;20806;-72
2021/05/08 05:17:26;;;;;;;7.00;5.13;;;4.10;99.90;;;;;;5111702;28;20436;-72
2021/05/08 05:19:53;;;;;;;9.07;4.60;;;4.20;99.90;;;;;;5111041;28;20475;-72
2021/05/08 05:22:20;;;;;;;10.50;4.50;;;4.20;99.90;;;;;;5111355;28;20420;-71
2021/05/08 05:24:47;;;;;;;7.80;4.30;;;4.30;99.90;;;;;;5110695;28;20460;-72
2021/05/08 05:27:14;;;;;;;4.60;4.20;;;4.50;99.90;;;;;;5111553;28;20979;-72
2021/05/08 05:29:40;;;;;;;31.30;15.67;;;4.90;99.90;;;;;;5123025;27;20447;-72
2021/05/08 05:32:08;;;;;;;16.30;10.67;;;4.90;99.90;;;;;;5112022;27;20522;-72
2021/05/08 05:34:34;;;;;;;8.47;6.53;;;5.00;99.90;;;;;;5111266;28;20444;-73
2021/05/08 05:37:01;;;;;;;36.47;18.27;;;5.00;99.90;;;;;;5111143;28;20827;-72
2021/05/08 05:39:29;;;;;;;120.73;50.87;;;5.00;99.90;;;;;;5111283;28;20954;-73
2021/05/08 05:41:55;;;;;;;40.20;24.40;;;5.10;99.90;;;;;;5111128;28;20798;-71
2021/05/08 05:44:22;;;;;;;18.67;11.30;;;5.10;99.90;;;;;;5110999;28;20445;-72
2021/05/08 05:46:49;;;;;;;9.23;7.47;;;5.20;99.90;;;;;;5111556;28;20420;-72
2021/05/08 05:49:15;;;;;;;8.73;8.03;;;5.30;99.90;;;;;;5111253;28;20420;-72
2021/05/08 05:51:42;;;;;;;5.27;4.40;;;5.30;99.90;;;;;;5111226;28;20429;-72
2021/05/08 05:54:09;;;;;;;5.60;5.10;;;5.40;99.90;;;;;;5111045;28;20447;-72
2021/05/08 05:56:39;;;;;;;5.87;5.20;;;5.40;99.90;;;;;;5110958;28;20921;-72
2021/05/08 05:59:06;;;;;;;6.50;5.83;;;5.50;99.90;;;;;;5110608;28;20443;-72
2021/05/08 06:01:32;;;;;;;6.93;5.73;;;5.60;99.90;;;;;;5111304;28;20798;-72
2021/05/08 06:03:59;;;;;;;7.47;5.10;;;5.60;99.90;;;;;;5111162;28;20447;-71
2021/05/08 06:06:26;;;;;;;5.73;3.63;;;5.70;99.90;;;;;;5110991;28;20515;-72
2021/05/08 06:08:53;;;;;;;3.47;3.10;;;5.80;99.90;;;;;;5110924;28;20959;-72
2021/05/08 06:11:19;;;;;;;10.07;3.60;;;5.90;99.90;;;;;;5110819;28;20425;-72
2021/05/08 06:13:50;;;;;;;4.20;3.80;;;6.00;99.90;;;;;;5110624;28;20447;-72
2021/05/08 06:16:16;;;;;;;4.37;3.50;;;6.10;99.90;;;;;;5110746;28;20930;-72
2021/05/08 06:18:43;;;;;;;4.40;3.17;;;6.20;99.90;;;;;;5110778;28;20432;-72
2021/05/08 06:21:10;;;;;;;6.17;3.00;;;6.30;99.90;;;;;;5110953;28;20471;-72
2021/05/08 06:23:36;;;;;;;3.53;3.10;;;6.30;99.90;;;;;;5110787;28;20562;-72
2021/05/08 06:26:03;;;;;;;4.63;2.90;;;6.40;99.90;;;;;;5110774;28;20444;-74
2021/05/08 06:28:30;;;;;;;4.50;2.87;;;6.40;99.90;;;;;;5113705;28;20452;-72
2021/05/08 06:30:57;;;;;;;3.57;3.30;;;6.50;99.90;;;;;;5120423;27;20441;-72
2021/05/08 06:33:24;;;;;;;3.70;3.10;;;6.60;99.90;;;;;;5110651;28;20475;-72
2021/05/08 06:35:51;;;;;;;4.07;3.33;;;6.80;99.90;;;;;;5111034;28;20956;-71
2021/05/08 06:38:18;;;;;;;3.47;3.17;;;6.80;99.90;;;;;;5114426;28;20425;-71
2021/05/08 06:40:44;;;;;;;3.80;3.40;;;6.90;99.90;;;;;;5114351;28;20479;-72
2021/05/08 06:43:11;;;;;;;6.03;3.40;;;7.00;99.90;;;;;;5114810;28;20776;-72
2021/05/08 06:45:38;;;;;;;3.63;3.33;;;7.10;99.90;;;;;;5113946;28;20464;-72
2021/05/08 06:48:07;;;;;;;4.20;2.83;;;7.20;99.90;;;;;;5114142;28;20474;-72
2021/05/08 06:50:34;;;;;;;4.73;3.07;;;7.30;99.90;;;;;;5114278;28;20458;-72
2021/05/08 06:53:01;;;;;;;3.40;3.10;;;7.40;99.90;;;;;;5117232;27;20459;-74
2021/05/08 06:55:27;;;;;;;6.40;3.40;;;7.40;99.90;;;;;;5134661;27;20448;-73
2021/05/08 06:57:54;;;;;;;3.13;2.83;;;7.60;99.90;;;;;;5134853;27;20506;-72
2021/05/08 07:00:21;;;;;;;3.57;3.03;;;7.70;99.90;;;;;;5134617;27;20468;-74
2021/05/08 07:02:48;;;;;;;2.90;2.60;;;7.90;99.90;;;;;;5134493;27;20436;-73
2021/05/08 07:05:15;;;;;;;6.43;3.03;;;8.10;99.90;;;;;;5134671;27;20442;-72
2021/05/08 07:07:42;;;;;;;2.87;2.57;;;8.30;99.90;;;;;;5113587;27;20560;-70
2021/05/08 07:10:10;;;;;;;3.17;2.77;;;8.50;99.90;;;;;;5113460;28;20920;-70
2021/05/08 07:12:36;;;;;;;3.60;3.30;;;8.80;99.90;;;;;;5114074;28;20472;-68
2021/05/08 07:15:03;;;;;;;4.30;3.30;;;9.10;99.90;;;;;;5113868;28;20805;-71
2021/05/08 07:17:30;;;;;;;4.00;3.47;;;9.30;99.90;;;;;;5113606;28;20960;-71
2021/05/08 07:19:57;;;;;;;3.90;3.40;;;9.50;99.90;;;;;;5114203;28;20470;-71
2021/05/08 07:22:24;;;;;;;2.87;2.63;;;9.70;99.90;;;;;;5112916;27;21164;-70
2021/05/08 07:24:51;;;;;;;3.60;2.80;;;9.70;99.90;;;;;;5113223;27;20512;-71
2021/05/08 07:27:19;;;;;;;2.40;2.20;;;9.70;99.90;;;;;;5113586;28;20452;-72
2021/05/08 07:29:45;;;;;;;3.30;3.00;;;9.80;99.90;;;;;;5113511;28;20847;-71
2021/05/08 07:32:13;;;;;;;3.80;3.03;;;9.90;99.90;;;;;;5113460;28;20424;-71
2021/05/08 07:34:40;;;;;;;3.57;2.83;;;10.10;99.90;;;;;;5113401;28;20469;-71
2021/05/08 07:37:06;;;;;;;3.10;2.83;;;10.30;99.90;;;;;;5113506;28;20488;-71
2021/05/08 07:39:34;;;;;;;4.30;3.10;;;10.50;99.90;;;;;;5112459;27;20483;-71
2021/05/08 07:42:01;;;;;;;3.23;2.93;;;10.70;99.90;;;;;;5113361;28;20469;-70
2021/05/08 07:44:29;;;;;;;4.47;4.10;;;10.70;99.90;;;;;;5113174;28;20451;-72
2021/05/08 07:47:07;;;;;;;3.03;2.83;;;10.70;99.90;;;;;;5113450;28;20428;-72
2021/05/08 07:49:34;;;;;;;4.57;3.40;;;10.80;99.90;;;;;;5112930;28;20555;-71
2021/05/08 07:52:01;;;;;;;3.07;2.80;;;10.70;99.90;;;;;;5113266;28;20785;-71
2021/05/08 07:54:27;;;;;;;4.50;3.53;;;10.80;99.90;;;;;;5112734;28;20871;-72
2021/05/08 07:56:55;;;;;;;2.80;2.60;;;10.80;99.90;;;;;;5113542;28;20510;-71
2021/05/08 07:59:21;;;;;;;4.60;3.27;;;10.90;99.90;;;;;;5112832;28;20434;-72
2021/05/08 08:01:48;;;;;;;3.57;3.03;;;10.90;99.90;;;;;;5112739;28;20520;-72
2021/05/08 08:04:15;;;;;;;3.10;2.80;;;10.90;99.90;;;;;;5112682;28;20436;-72
2021/05/08 08:06:42;;;;;;;4.63;3.00;;;10.90;99.90;;;;;;5113035;28;20941;-72
2021/05/08 08:09:08;;;;;;;6.70;3.20;;;10.90;99.90;;;;;;5112179;28;20937;-71
2021/05/08 08:11:36;;;;;;;4.07;2.00;;;10.80;99.90;;;;;;5112624;28;21089;-71
2021/05/08 08:14:04;;;;;;;7.43;1.70;;;10.80;99.90;;;;;;5112560;28;20471;-71
2021/05/08 08:16:31;;;;;;;1.83;1.40;;;10.90;99.90;;;;;;5112675;28;20467;-71
2021/05/08 08:18:58;;;;;;;3.57;1.60;;;10.90;99.90;;;;;;5112182;28;20837;-71
2021/05/08 08:21:25;;;;;;;1.80;1.60;;;10.90;99.90;;;;;;5112406;28;20476;-73
2021/05/08 08:23:52;;;;;;;2.23;1.70;;;11.00;99.90;;;;;;5112065;28;20456;-72
2021/05/08 08:26:18;;;;;;;3.00;1.70;;;11.00;99.90;;;;;;5114507;27;20520;-72
2021/05/08 08:28:45;;;;;;;1.47;1.23;;;10.90;99.90;;;;;;5120505;27;20427;-72
2021/05/08 08:31:13;;;;;;;2.70;1.57;;;10.90;99.90;;;;;;5132660;27;20450;-73
2021/05/08 08:33:39;;;;;;;2.80;1.70;;;10.80;99.90;;;;;;5132687;27;20419;-72
2021/05/08 08:36:06;;;;;;;1.23;1.13;;;10.80;99.90;;;;;;5132963;27;20434;-71
2021/05/08 08:38:33;;;;;;;1.30;1.20;;;10.90;99.90;;;;;;5132475;27;20457;-71
2021/05/08 08:41:00;;;;;;;1.77;1.40;;;11.00;99.90;;;;;;5117214;27;20471;-70
2021/05/08 08:43:27;;;;;;;1.17;1.07;;;11.00;99.90;;;;;;5112046;28;20443;-71
2021/05/08 08:45:54;;;;;;;3.87;1.47;;;11.10;99.90;;;;;;5111798;28;20539;-72
2021/05/08 08:48:23;;;;;;;1.80;1.00;;;11.20;99.90;;;;;;5112023;28;20426;-71
2021/05/08 08:50:50;;;;;;;3.30;1.27;;;11.10;99.90;;;;;;5111618;28;20477;-72
2021/05/08 08:53:17;;;;;;;4.63;1.30;;;11.20;99.90;;;;;;5111149;27;20436;-72
2021/05/08 08:55:52;;;;;;;3.13;1.40;;;11.40;99.90;;;;;;5111711;28;20449;-72
2021/05/08 08:58:21;;;;;;;1.43;1.20;;;11.40;99.90;;;;;;5111549;28;20435;-72
2021/05/08 09:00:48;;;;;;;1.50;1.10;;;11.30;99.90;;;;;;5111071;28;20558;-72
2021/05/08 09:03:14;;;;;;;1.33;1.23;;;11.30;99.90;;;;;;5111866;28;20424;-72
2021/05/08 09:05:42;;;;;;;1.40;1.30;;;11.50;99.90;;;;;;5111583;28;20463;-72
2021/05/08 09:08:12;;;;;;;2.60;1.23;;;11.50;99.90;;;;;;5111564;28;20480;-72
2021/05/08 09:10:38;;;;;;;1.30;1.00;;;11.50;99.90;;;;;;5111539;28;20882;-72
2021/05/08 09:13:06;;;;;;;1.70;1.20;;;11.60;99.90;;;;;;5111508;28;20428;-72
2021/05/08 09:15:37;;;;;;;4.90;1.30;;;11.70;99.90;;;;;;5111357;28;20475;-72
2021/05/08 09:18:05;;;;;;;1.30;1.13;;;11.80;99.90;;;;;;5111510;28;20948;-72
2021/05/08 09:20:45;;;;;;;1.10;1.00;;;11.80;99.90;;;;;;5111170;28;20875;-72
2021/05/08 09:23:19;;;;;;;1.47;1.17;;;11.80;99.90;;;;;;5113657;28;21004;-72
2021/05/08 09:26:00;;;;;;;1.20;1.10;;;11.90;99.90;;;;;;5132017;27;20450;-71
2021/05/08 09:28:28;;;;;;;2.03;1.13;;;11.80;99.90;;;;;;5131942;27;20446;-72
2021/05/08 09:30:55;;;;;;;1.20;0.90;;;11.80;99.90;;;;;;5131888;27;20433;-72
2021/05/08 09:33:22;;;;;;;1.20;1.00;;;11.90;99.90;;;;;;5123154;27;20509;-72
2021/05/08 09:36:00;;;;;;;1.63;1.53;;;11.90;99.90;;;;;;5124651;28;20471;-72
2021/05/08 09:38:32;;;;;;;1.13;1.03;;;11.90;99.90;;;;;;5111275;28;20453;-72
2021/05/08 09:40:59;;;;;;;2.00;1.40;;;12.00;99.90;;;;;;5111079;28;20567;-72
2021/05/08 09:43:26;;;;;;;1.10;0.90;;;12.10;99.90;;;;;;5111232;28;20934;-73
2021/05/08 09:45:53;;;;;;;1.40;1.30;;;12.20;99.90;;;;;;5110967;28;20513;-72
2021/05/08 09:48:21;;;;;;;2.37;1.33;;;12.10;99.90;;;;;;5111102;28;20435;-71
2021/05/08 09:50:48;;;;;;;1.60;1.20;;;12.20;99.90;;;;;;5111295;28;20481;-72
2021/05/08 09:53:32;;;;;;;2.93;1.17;;;12.30;99.90;;;;;;5110843;28;20538;-72
2021/05/08 09:55:59;;;;;;;1.40;1.10;;;12.30;99.90;;;;;;5111091;28;20440;-71
2021/05/08 09:58:27;;;;;;;1.20;1.00;;;12.40;99.90;;;;;;5111073;28;20436;-72
2021/05/08 10:00:54;;;;;;;1.10;1.00;;;12.60;99.90;;;;;;5110812;28;20464;-72
2021/05/08 10:03:23;;;;;;;1.80;1.07;;;12.90;99.90;;;;;;5111138;28;20432;-73
2021/05/08 10:06:08;;;;;;;2.20;1.43;;;12.80;99.90;;;;;;5111069;28;21032;-72
2021/05/08 10:08:36;;;;;;;1.57;1.03;;;12.60;99.90;;;;;;5110811;28;20839;-72
2021/05/08 10:11:03;;;;;;;1.40;1.20;;;12.80;99.90;;;;;;5112866;28;20461;-73
2021/05/08 10:13:32;;;;;;;1.40;1.30;;;12.90;99.90;;;;;;5114837;28;21317;-71
2021/05/08 10:16:01;;;;;;;1.87;1.30;;;12.80;99.90;;;;;;5114566;28;20459;-72
2021/05/08 10:18:30;;;;;;;2.13;1.37;;;12.80;99.90;;;;;;5114852;28;20932;-72
2021/05/08 10:20:58;;;;;;;1.50;1.27;;;12.80;99.90;;;;;;5114542;28;20463;-72
2021/05/08 10:23:30;;;;;;;1.90;1.43;;;12.70;99.90;;;;;;5114404;27;20439;-71
2021/05/08 10:26:02;;;;;;;1.20;1.03;;;12.70;99.90;;;;;;5114580;28;20536;-72
2021/05/08 10:28:28;;;;;;;1.93;1.30;;;12.90;99.90;;;;;;5114639;28;20496;-72
2021/05/08 10:30:56;;;;;;;2.07;1.40;;;12.60;99.90;;;;;;5114414;28;20428;-71
2021/05/08 10:33:24;;;;;;;1.93;1.20;;;12.80;99.90;;;;;;5119029;27;20488;-71
2021/05/08 10:35:52;;;;;;;1.80;1.37;;;12.90;99.90;;;;;;5124089;27;20452;-71
2021/05/08 10:38:21;;;;;;;1.30;1.10;;;13.10;99.90;;;;;;5114301;28;20431;-72
2021/05/08 10:40:56;;;;;;;1.43;1.10;;;13.20;99.90;;;;;;5114333;28;20470;-71
2021/05/08 10:43:47;;;;;;;3.40;1.13;;;13.40;99.90;;;;;;5114742;28;20925;-71
2021/05/08 10:46:15;;;;;;;1.47;1.03;;;13.50;99.90;;;;;;5111049;27;20432;-70
2021/05/08 10:49:17;;;;;;;1.50;1.40;;;13.50;99.90;;;;;;5114137;28;20448;-71
2021/05/08 10:51:55;;;;;;;2.30;1.40;;;13.50;99.90;;;;;;5114243;28;20462;-71
2021/05/08 10:54:54;;;;;;;3.57;1.10;;;13.50;99.90;;;;;;5113932;28;20452;-72
2021/05/08 10:57:23;;;;;;;1.67;1.00;;;13.70;99.90;;;;;;5070790;28;20935;-70
2021/05/08 11:00:26;;;;;;;1.40;1.10;;;14.00;99.90;;;;;;5105083;28;20475;-71
2021/05/08 11:03:04;;;;;;;1.30;1.10;;;14.20;99.90;;;;;;5114062;28;20441;-71
2021/05/08 11:05:33;;;;;;;3.73;1.03;;;14.40;99.90;;;;;;5113790;28;20450;-70
2021/05/08 11:08:20;;;;;;;1.70;1.10;;;14.50;99.90;;;;;;5114119;28;20428;-71
2021/05/08 11:10:53;;;;;;;1.80;1.10;;;14.80;99.90;;;;;;5113277;28;20433;-71
2021/05/08 11:13:21;;;;;;;2.50;1.40;;;15.10;99.90;;;;;;5113689;28;20469;-70
2021/05/08 11:16:10;;;;;;;1.23;1.13;;;15.30;99.90;;;;;;5113565;27;20509;-71
2021/05/08 11:18:40;;;;;;;2.60;1.30;;;15.30;99.00;;;;;;5113757;28;20767;-71
2021/05/08 11:21:38;;;;;;;4.03;1.43;;;15.20;98.80;;;;;;5113652;28;20525;-71
2021/05/08 11:24:05;;;;;;;2.40;1.67;;;15.10;98.80;;;;;;5113174;28;20454;-71
2021/05/08 11:26:34;;;;;;;1.97;1.33;;;15.60;99.50;;;;;;5113720;28;20439;-71
2021/05/08 11:29:03;;;;;;;1.57;1.37;;;15.60;98.50;;;;;;5113463;28;20793;-70
2021/05/08 11:31:32;;;;;;;1.57;1.03;;;15.10;97.90;;;;;;5113636;28;20489;-71
2021/05/08 11:34:11;;;;;;;1.30;1.20;;;15.30;95.30;;;;;;5113260;28;20509;-70
2021/05/08 11:36:46;;;;;;;2.00;1.40;;;15.20;97.00;;;;;;5113244;28;21002;-71
2021/05/08 11:39:14;;;;;;;1.80;1.20;;;15.40;98.00;;;;;;5112984;28;20910;-70
2021/05/08 11:41:41;;;;;;;1.80;1.30;;;15.60;99.90;;;;;;5113132;28;20529;-70
2021/05/08 11:44:09;;;;;;;2.80;1.00;;;15.70;96.40;;;;;;5113056;27;20448;-71
2021/05/08 11:46:35;;;;;;;1.23;1.13;;;15.80;98.10;;;;;;5113400;28;20504;-70
2021/05/08 11:49:03;;;;;;;2.03;1.40;;;15.90;95.10;;;;;;5112919;28;20424;-71
2021/05/08 11:51:31;;;;;;;2.13;1.60;;;15.80;95.10;;;;;;5113378;28;20418;-70
2021/05/08 11:54:08;;;;;;;1.40;1.00;;;16.00;97.10;;;;;;5112627;28;20509;-70
2021/05/08 11:56:35;;;;;;;2.40;1.50;;;15.70;93.70;;;;;;5113116;28;20444;-73
2021/05/08 11:59:03;;;;;;;1.27;1.17;;;16.00;94.20;;;;;;5112755;28;20428;-72
2021/05/08 12:01:31;;;;;;;1.47;1.00;;;16.30;94.60;;;;;;5112790;28;20487;-72
2021/05/08 12:03:59;;;;;;;1.70;1.17;;;16.00;91.80;;;;;;5112633;28;20448;-72
2021/05/08 12:06:27;;;;;;;1.83;1.13;;;16.00;93.50;;;;;;5112847;28;21139;-71
2021/05/08 12:08:55;;;;;;;8.53;1.10;;;16.10;92.30;;;;;;5112318;28;20552;-72
2021/05/08 12:11:23;;;;;;;1.10;0.90;;;16.00;90.80;;;;;;5112634;28;20428;-69
2021/05/08 12:13:50;;;;;;;1.13;0.83;;;16.20;93.60;;;;;;5112616;27;20904;-71
2021/05/08 12:16:17;;;;;;;1.63;0.83;;;16.50;91.30;;;;;;5112432;28;20423;-70
2021/05/08 12:18:44;;;;;;;2.27;1.20;;;16.50;85.70;;;;;;5115679;27;20804;-71
2021/05/08 12:21:14;;;;;;;3.17;1.03;;;16.60;87.40;;;;;;5121815;27;20873;-70
2021/05/08 12:23:42;;;;;;;2.27;0.80;;;16.70;90.90;;;;;;5115737;27;20470;-72
2021/05/08 12:26:16;;;;;;;1.30;0.90;;;16.70;84.00;;;;;;5118640;27;20432;-71
2021/05/08 12:28:55;;;;;;;3.07;0.90;;;16.50;82.60;;;;;;5112116;28;20434;-71
2021/05/08 12:31:24;;;;;;;2.07;1.13;;;16.80;90.20;;;;;;5111932;28;20954;-72
2021/05/08 12:33:51;;;;;;;1.83;1.10;;;17.10;91.50;;;;;;5110876;28;20436;-72
2021/05/08 12:36:20;;;;;;;2.80;1.00;;;17.50;93.20;;;;;;5123731;27;20427;-71
2021/05/08 12:38:47;;;;;;;2.13;0.83;;;17.90;87.70;;;;;;5121813;27;20440;-71
2021/05/08 12:41:32;;;;;;;1.47;0.90;;;17.80;81.90;;;;;;5120833;27;20460;-71
2021/05/08 12:44:07;;;;;;;1.20;0.90;;;17.80;80.80;;;;;;5123440;27;20418;-70
2021/05/08 12:46:55;;;;;;;1.83;0.80;;;18.00;85.00;;;;;;5121072;27;20422;-71
2021/05/08 12:49:21;;;;;;;2.70;1.20;;;18.20;86.80;;;;;;5117161;27;20915;-70
2021/05/08 12:51:48;;;;;;;1.00;0.90;;;18.20;86.90;;;;;;5111947;28;20472;-72
2021/05/08 12:54:23;;;;;;;3.00;1.00;;;18.20;85.00;;;;;;5111623;28;20462;-72
2021/05/08 12:56:52;;;;;;;1.10;0.90;;;18.50;83.10;;;;;;5112022;28;20407;-71
2021/05/08 12:59:27;;;;;;;1.00;0.80;;;17.80;76.60;;;;;;5111616;28;20438;-72